Pagina principale
METAR-TAF:

METAR-TAF

Aeroporti :

Aeroporto di Berna

Berna, Svizzera

latitudine: 46-55N, longitudine: 007-30E, altezza: 505 m

Osservazione

Il bollettino è stato emesso 29 minuti fa, alle 16:50 UTC
Vento 7 kt da direzioni variabili
Temperature 21°C
Umidità 38%
Pressione 1016 hPa
Visibilità 10 km o più
nessuna nube inferiore a 1500 m e nessun cumulonembo

METAR: LSZB 311650Z AUTO VRB07KT CAVOK 21/06 Q1016

Ora: 19:19 (17:19 UTC)

Previsione

Il bollettino è stato emesso 2 ore e 54 minuti fa, alle 14:25 UTC
Previsione valida dal 31 alle 15 UTC al 31 alle 24 UTC
Vento 6 kt da nord/nord-est
Visibilità 10 km o più
Nubi sparse ad un'altezza di 5500 ft

TAF: LSZB 311425Z 3115/3124 03006KT 9999 SCT055

Osservazioni e previsioni meteorologiche di più di 4000 aeroporti (messaggi METAR e TAF).

Le stazioni disponibili sono rappresentate dai dischi gialli e rossi sulla carta.

Puntare il mouse per vedere il nome della stazione.

Clicca sopra per visualizzare le osservazioni e previsioni meteorologiche.

Per cambiare la mappa : fare clic sui pulsanti verdi con una croce nera per ingrandire, il pulsante verde con un trattino per diminuire, o sulla freccia verde per le mappe adiacenti.


METAR-TAF: